Time;durP1;ratioP1;P1;durP2;ratioP2;P2;SDS_P1;SDS_P2;PMS_P1;PMS_P2;Temp;Humidity;BMP_temperature;BMP_pressure;BME280_temperature;BME280_humidity;BME280_pressure;Samples;Min_cycle;Max_cycle;Signal;HPM_P1;HPM_P2
2023/08/21 00:00:42;;;;;;;11.30;10.20;;;23.60;99.90;;;;;;4996242;28;20443;-45
2023/08/21 00:03:08;;;;;;;10.53;9.47;;;23.60;99.90;;;;;;4995469;28;20413;-44
2023/08/21 00:05:35;;;;;;;12.53;10.10;;;23.60;99.90;;;;;;4995871;28;20449;-45
2023/08/21 00:08:01;;;;;;;11.03;9.93;;;23.60;99.90;;;;;;4996198;28;20437;-45
2023/08/21 00:10:28;;;;;;;11.60;9.77;;;23.50;99.90;;;;;;4995977;28;20437;-48
2023/08/21 00:12:55;;;;;;;10.83;9.73;;;23.50;99.90;;;;;;4994778;28;20444;-44
2023/08/21 00:15:21;;;;;;;11.63;10.00;;;23.50;99.90;;;;;;4995722;28;20461;-44
2023/08/21 00:17:49;;;;;;;10.83;9.23;;;23.50;99.90;;;;;;4995206;28;20476;-47
2023/08/21 00:20:16;;;;;;;11.50;10.30;;;23.50;99.90;;;;;;4995684;28;20977;-44
2023/08/21 00:22:43;;;;;;;12.27;9.70;;;23.70;99.90;;;;;;4996000;28;20443;-44
2023/08/21 00:25:09;;;;;;;10.27;9.30;;;23.40;99.90;;;;;;4995565;28;20475;-45
2023/08/21 00:27:36;;;;;;;11.70;10.50;;;23.40;99.90;;;;;;4995358;28;20437;-43
2023/08/21 00:30:03;;;;;;;9.23;8.43;;;23.40;99.90;;;;;;4994189;28;20460;-45
2023/08/21 00:32:29;;;;;;;10.40;9.30;;;23.40;99.90;;;;;;4995260;28;20974;-44
2023/08/21 00:34:57;;;;;;;11.00;9.90;;;23.40;99.90;;;;;;4995351;28;20457;-45
2023/08/21 00:37:25;;;;;;;8.60;7.80;;;23.40;99.90;;;;;;4993947;28;20496;-47
2023/08/21 00:39:51;;;;;;;10.87;9.77;;;23.30;99.90;;;;;;4995936;28;20519;-44
2023/08/21 00:42:18;;;;;;;14.53;10.00;;;23.30;99.90;;;;;;4994301;28;20495;-45
2023/08/21 00:44:44;;;;;;;10.63;9.50;;;23.30;99.90;;;;;;4993613;28;20800;-43
2023/08/21 00:47:11;;;;;;;10.40;9.40;;;23.30;99.90;;;;;;4994876;28;20428;-46
2023/08/21 00:49:39;;;;;;;11.57;10.47;;;23.30;99.90;;;;;;4993927;28;20451;-45
2023/08/21 00:52:09;;;;;;;11.70;9.80;;;23.20;99.90;;;;;;4993782;28;20437;-44
2023/08/21 00:54:36;;;;;;;11.80;10.60;;;23.20;99.90;;;;;;4993690;28;20488;-46
2023/08/21 00:57:03;;;;;;;11.53;10.43;;;23.10;99.90;;;;;;4993386;28;20451;-45
2023/08/21 00:59:30;;;;;;;13.83;10.73;;;23.10;99.90;;;;;;4993474;28;20476;-46
2023/08/21 01:01:57;;;;;;;11.03;9.83;;;23.10;99.90;;;;;;4994122;28;20458;-42
2023/08/21 01:04:24;;;;;;;11.10;10.00;;;23.10;99.90;;;;;;4998200;28;20440;-44
2023/08/21 01:06:52;;;;;;;10.13;9.13;;;23.10;99.90;;;;;;4995780;28;20449;-45
2023/08/21 01:09:28;;;;;;;10.93;9.47;;;23.00;99.90;;;;;;4995056;28;20441;-44
2023/08/21 01:12:04;;;;;;;11.30;10.20;;;23.00;99.90;;;;;;4995829;28;20877;-44
2023/08/21 01:14:37;;;;;;;11.70;10.50;;;23.00;99.90;;;;;;4996718;28;20460;-44
2023/08/21 01:17:07;;;;;;;15.70;10.30;;;23.00;99.90;;;;;;4996199;28;20448;-45
2023/08/21 01:19:37;;;;;;;12.93;10.80;;;23.00;99.90;;;;;;4994924;28;20986;-45
2023/08/21 01:22:04;;;;;;;13.27;11.27;;;23.00;99.90;;;;;;4995439;28;20461;-44
2023/08/21 01:24:33;;;;;;;12.83;11.50;;;23.00;99.90;;;;;;4994231;28;20484;-44
2023/08/21 01:27:00;;;;;;;12.53;9.50;;;23.00;99.90;;;;;;4994594;28;20636;-47
2023/08/21 01:29:27;;;;;;;12.17;10.80;;;23.00;99.90;;;;;;4993800;28;20444;-44
2023/08/21 01:32:02;;;;;;;11.50;10.40;;;23.00;99.90;;;;;;4993401;28;20484;-44
2023/08/21 01:34:32;;;;;;;10.93;9.83;;;23.10;99.90;;;;;;4994622;28;20882;-44
2023/08/21 01:36:59;;;;;;;11.97;10.27;;;23.10;99.90;;;;;;4992787;28;20540;-44
2023/08/21 01:39:27;;;;;;;12.40;10.90;;;23.10;99.90;;;;;;4994566;28;20907;-46
2023/08/21 01:41:56;;;;;;;12.20;11.07;;;23.10;99.90;;;;;;4994267;28;20811;-45
2023/08/21 01:44:22;;;;;;;10.90;10.00;;;23.20;99.90;;;;;;4992750;28;20457;-45
2023/08/21 01:46:49;;;;;;;12.07;10.70;;;23.20;99.90;;;;;;4993836;28;20467;-44
2023/08/21 01:49:18;;;;;;;12.90;10.13;;;23.20;99.90;;;;;;4993923;28;20455;-44
2023/08/21 01:51:46;;;;;;;11.50;10.40;;;23.20;99.90;;;;;;4993958;28;20970;-44
2023/08/21 01:54:13;;;;;;;11.10;10.10;;;23.20;99.90;;;;;;4993640;28;20445;-46
2023/08/21 01:56:39;;;;;;;11.40;10.17;;;23.20;99.90;;;;;;4992122;28;20444;-45
2023/08/21 01:59:07;;;;;;;12.37;11.17;;;23.20;99.90;;;;;;4992414;28;20490;-45
2023/08/21 02:01:34;;;;;;;11.67;10.57;;;23.20;99.90;;;;;;4992467;28;20440;-45
2023/08/21 02:04:01;;;;;;;11.77;10.67;;;23.20;99.90;;;;;;4993630;28;20446;-45
2023/08/21 02:06:28;;;;;;;11.53;10.43;;;23.30;99.90;;;;;;4992185;28;20479;-44
2023/08/21 02:08:54;;;;;;;10.83;9.50;;;23.20;99.90;;;;;;4992147;28;20636;-44
2023/08/21 02:11:21;;;;;;;10.73;9.50;;;23.30;99.90;;;;;;4993936;28;20503;-45
2023/08/21 02:13:48;;;;;;;11.33;10.10;;;23.30;99.90;;;;;;4993691;28;20440;-45
2023/08/21 02:16:16;;;;;;;12.67;10.40;;;23.30;99.90;;;;;;4992574;28;20450;-44
2023/08/21 02:18:43;;;;;;;11.37;10.03;;;23.40;99.90;;;;;;4993617;28;20563;-43
2023/08/21 02:21:13;;;;;;;11.07;10.07;;;23.30;99.90;;;;;;4992594;28;20878;-44
2023/08/21 02:23:42;;;;;;;10.60;9.50;;;23.30;99.90;;;;;;4992797;28;20456;-44
2023/08/21 02:26:11;;;;;;;11.17;9.97;;;23.20;99.90;;;;;;4992496;28;20468;-45
2023/08/21 02:28:40;;;;;;;9.10;8.10;;;23.20;99.90;;;;;;4993106;28;20444;-44
2023/08/21 02:31:10;;;;;;;10.67;9.57;;;23.10;99.90;;;;;;4992590;28;20788;-44
2023/08/21 02:33:38;;;;;;;9.60;8.70;;;23.20;99.90;;;;;;4992433;28;20448;-44
2023/08/21 02:36:07;;;;;;;12.73;9.53;;;23.10;99.90;;;;;;4996298;28;20460;-42
2023/08/21 02:38:33;;;;;;;9.90;8.90;;;23.10;99.90;;;;;;4995096;28;20476;-43
2023/08/21 02:41:00;;;;;;;11.17;8.73;;;23.20;99.90;;;;;;4993795;28;20445;-45
2023/08/21 02:43:26;;;;;;;10.40;9.27;;;23.10;99.90;;;;;;4991841;28;20828;-45
2023/08/21 02:45:54;;;;;;;10.10;9.00;;;23.10;99.90;;;;;;4992689;28;20470;-44
2023/08/21 02:48:21;;;;;;;9.97;8.97;;;23.10;99.90;;;;;;4992617;28;21010;-44
2023/08/21 02:50:49;;;;;;;9.90;8.80;;;23.10;99.90;;;;;;4992732;28;20432;-46
2023/08/21 02:53:16;;;;;;;10.30;9.23;;;23.10;99.90;;;;;;4992628;28;20448;-46
2023/08/21 02:55:43;;;;;;;10.50;9.50;;;22.90;99.90;;;;;;4991313;28;20464;-45
2023/08/21 02:58:13;;;;;;;9.20;8.20;;;23.10;99.90;;;;;;4992134;28;20468;-44
2023/08/21 03:00:39;;;;;;;8.70;7.90;;;23.10;99.90;;;;;;4992561;28;20840;-44
2023/08/21 03:03:06;;;;;;;9.97;8.90;;;23.10;99.90;;;;;;4992415;28;20432;-47
2023/08/21 03:05:32;;;;;;;11.23;9.57;;;23.10;99.90;;;;;;4991177;28;20467;-44
2023/08/21 03:08:01;;;;;;;12.37;8.00;;;23.10;99.90;;;;;;4991191;28;20503;-43
2023/08/21 03:10:29;;;;;;;10.07;8.27;;;23.20;99.90;;;;;;4991129;28;20444;-43
2023/08/21 03:12:56;;;;;;;10.00;9.10;;;23.10;99.90;;;;;;4991115;28;20518;-44
2023/08/21 03:15:22;;;;;;;9.27;8.30;;;23.10;99.90;;;;;;4990994;28;20888;-45
2023/08/21 03:17:49;;;;;;;8.77;7.87;;;23.20;99.90;;;;;;4992118;28;20779;-45
2023/08/21 03:20:17;;;;;;;9.17;8.20;;;23.20;99.90;;;;;;4992428;28;20575;-45
2023/08/21 03:22:44;;;;;;;11.10;8.83;;;23.20;99.90;;;;;;4991477;28;20816;-44
2023/08/21 03:25:12;;;;;;;11.43;8.87;;;23.30;99.90;;;;;;4990968;28;20477;-45
2023/08/21 03:27:40;;;;;;;9.77;8.77;;;23.20;99.90;;;;;;4991167;28;20471;-44
2023/08/21 03:30:08;;;;;;;8.77;7.83;;;23.20;99.90;;;;;;4991191;28;20522;-45
2023/08/21 03:32:35;;;;;;;9.20;8.40;;;23.20;99.90;;;;;;4993938;28;20462;-47
2023/08/21 03:35:03;;;;;;;8.53;7.73;;;23.00;99.90;;;;;;4995198;28;21064;-44
2023/08/21 03:37:29;;;;;;;9.30;8.50;;;23.20;99.90;;;;;;4994853;28;20472;-45
2023/08/21 03:39:57;;;;;;;10.10;9.10;;;23.30;99.90;;;;;;4994876;28;20484;-44
2023/08/21 03:42:25;;;;;;;9.00;8.07;;;23.30;99.90;;;;;;4995045;28;20451;-44
2023/08/21 03:44:51;;;;;;;10.00;9.00;;;23.20;99.90;;;;;;4995065;28;20487;-47
2023/08/21 03:47:18;;;;;;;9.80;8.33;;;23.20;99.90;;;;;;4994495;28;20448;-47
2023/08/21 03:49:53;;;;;;;11.37;8.33;;;23.20;99.90;;;;;;4994912;28;20917;-49
2023/08/21 03:52:22;;;;;;;9.77;8.87;;;23.20;99.90;;;;;;4995309;28;20448;-48
2023/08/21 03:54:49;;;;;;;10.77;9.67;;;23.10;99.90;;;;;;4995926;28;20558;-49
2023/08/21 03:57:15;;;;;;;12.10;8.87;;;23.10;99.90;;;;;;4995621;28;20436;-47
2023/08/21 03:59:44;;;;;;;11.77;8.40;;;23.10;99.90;;;;;;4994454;28;20468;-49
2023/08/21 04:02:11;;;;;;;10.00;8.40;;;23.10;99.90;;;;;;4994495;28;20448;-48
2023/08/21 04:04:37;;;;;;;9.60;8.60;;;23.10;99.90;;;;;;4994195;28;20514;-48
2023/08/21 04:07:04;;;;;;;10.30;9.27;;;23.00;99.90;;;;;;4995030;28;20450;-47
2023/08/21 04:09:31;;;;;;;9.77;8.33;;;23.10;99.90;;;;;;4994484;28;20447;-48
2023/08/21 04:11:57;;;;;;;9.40;8.50;;;23.10;99.90;;;;;;4995701;28;20438;-48
2023/08/21 04:14:24;;;;;;;10.47;9.30;;;23.10;99.90;;;;;;4994175;28;20815;-48
2023/08/21 04:16:52;;;;;;;9.57;8.67;;;22.90;99.90;;;;;;4995005;28;20954;-48
2023/08/21 04:19:20;;;;;;;8.67;7.87;;;23.00;99.90;;;;;;4995171;28;20475;-47
2023/08/21 04:21:47;;;;;;;8.33;7.63;;;23.20;99.90;;;;;;4995246;28;20432;-49
2023/08/21 04:24:13;;;;;;;10.00;8.43;;;23.20;99.90;;;;;;4993623;28;20462;-47
2023/08/21 04:26:40;;;;;;;9.57;8.53;;;23.20;99.90;;;;;;4993410;28;20695;-48
2023/08/21 04:29:06;;;;;;;9.93;9.00;;;23.20;99.90;;;;;;4995126;28;20528;-48
2023/08/21 04:31:33;;;;;;;15.87;8.87;;;23.20;99.90;;;;;;4993926;28;20456;-47
2023/08/21 04:34:01;;;;;;;11.13;7.80;;;23.20;99.90;;;;;;4994062;28;20466;-48
2023/08/21 04:36:28;;;;;;;12.23;8.43;;;23.00;99.90;;;;;;4993492;28;20479;-48
2023/08/21 04:38:55;;;;;;;9.33;8.40;;;23.30;99.90;;;;;;4993197;28;20449;-49
2023/08/21 04:41:21;;;;;;;11.43;9.30;;;23.30;99.90;;;;;;4995225;28;20429;-48
2023/08/21 04:43:49;;;;;;;10.07;9.03;;;23.20;99.90;;;;;;4993507;28;20514;-48
2023/08/21 04:46:15;;;;;;;12.67;9.43;;;23.30;99.90;;;;;;4993324;28;20476;-48
2023/08/21 04:48:44;;;;;;;10.77;8.30;;;23.20;99.90;;;;;;4993265;28;20702;-48
2023/08/21 04:51:14;;;;;;;9.57;8.67;;;23.20;99.90;;;;;;4993584;28;20491;-48
2023/08/21 04:53:41;;;;;;;14.70;8.80;;;23.20;99.90;;;;;;4993431;28;20449;-49
2023/08/21 04:56:12;;;;;;;10.33;8.47;;;23.30;99.90;;;;;;4993382;28;20468;-49
2023/08/21 04:58:39;;;;;;;9.43;8.53;;;23.30;99.90;;;;;;4993125;28;20451;-47
2023/08/21 05:01:07;;;;;;;18.77;9.87;;;23.40;99.90;;;;;;4992840;28;20492;-47
2023/08/21 05:03:37;;;;;;;14.30;9.57;;;23.40;99.90;;;;;;4993334;28;20452;-47
2023/08/21 05:06:04;;;;;;;10.73;8.77;;;23.40;99.90;;;;;;4992900;28;20473;-48
2023/08/21 05:08:35;;;;;;;10.10;8.43;;;23.40;99.90;;;;;;4993118;28;20543;-48
2023/08/21 05:11:02;;;;;;;10.50;9.40;;;23.50;99.90;;;;;;4993126;28;20988;-50
2023/08/21 05:13:32;;;;;;;10.50;8.50;;;23.60;99.90;;;;;;4993009;28;20448;-48
2023/08/21 05:16:00;;;;;;;10.20;8.80;;;23.60;99.90;;;;;;4992733;28;21004;-48
2023/08/21 05:18:30;;;;;;;12.10;9.10;;;23.60;99.90;;;;;;4992670;28;20452;-48
2023/08/21 05:20:57;;;;;;;11.13;10.10;;;23.70;99.90;;;;;;4992682;28;20508;-46
2023/08/21 05:23:24;;;;;;;11.13;9.77;;;23.70;99.90;;;;;;4992909;28;20840;-47
2023/08/21 05:25:55;;;;;;;13.30;9.50;;;23.70;99.90;;;;;;4992650;28;20469;-47
2023/08/21 05:28:22;;;;;;;13.87;9.33;;;23.70;99.90;;;;;;4992139;28;20543;-47
2023/08/21 05:30:49;;;;;;;10.77;9.77;;;23.60;99.90;;;;;;4992653;28;20509;-49
2023/08/21 05:33:16;;;;;;;10.13;9.00;;;23.80;99.90;;;;;;4992546;28;20545;-48
2023/08/21 05:35:44;;;;;;;10.47;9.40;;;23.80;99.90;;;;;;4992398;28;20605;-48
2023/08/21 05:38:11;;;;;;;10.33;9.30;;;23.90;99.90;;;;;;4993410;28;20432;-50
2023/08/21 05:40:37;;;;;;;11.43;10.33;;;23.90;99.90;;;;;;4992289;28;21020;-49
2023/08/21 05:43:05;;;;;;;14.53;9.30;;;23.80;99.90;;;;;;4993770;28;20435;-48
2023/08/21 05:45:32;;;;;;;10.87;9.23;;;24.10;99.90;;;;;;4992513;28;20576;-47
2023/08/21 05:47:59;;;;;;;10.47;9.40;;;24.20;99.90;;;;;;4991973;28;20876;-49
2023/08/21 05:50:26;;;;;;;15.33;11.07;;;24.40;99.90;;;;;;4993726;28;20433;-49
2023/08/21 05:52:54;;;;;;;11.60;9.97;;;24.50;99.90;;;;;;4993586;28;20432;-48
2023/08/21 05:55:21;;;;;;;11.17;9.10;;;24.60;99.90;;;;;;4991336;28;20505;-48
2023/08/21 05:57:47;;;;;;;14.27;9.93;;;25.00;99.90;;;;;;4992333;28;20823;-48
2023/08/21 06:00:18;;;;;;;10.10;9.00;;;24.70;99.90;;;;;;4992281;28;20852;-48
2023/08/21 06:02:45;;;;;;;11.33;10.27;;;24.70;99.90;;;;;;4993391;28;20540;-48
2023/08/21 06:05:21;;;;;;;10.60;9.37;;;24.80;99.90;;;;;;4992170;28;20473;-48
2023/08/21 06:07:52;;;;;;;16.00;10.27;;;24.80;99.90;;;;;;4972246;28;20466;-49
2023/08/21 06:10:18;;;;;;;12.70;10.30;;;24.80;99.90;;;;;;4972124;28;20458;-48
2023/08/21 06:12:45;;;;;;;12.70;9.53;;;24.80;99.90;;;;;;4972440;28;20452;-49
2023/08/21 06:15:12;;;;;;;11.10;9.30;;;24.80;99.90;;;;;;4972204;28;20462;-48
2023/08/21 06:17:42;;;;;;;10.70;9.60;;;24.80;99.90;;;;;;4971808;28;20462;-48
2023/08/21 06:20:09;;;;;;;12.27;9.90;;;24.80;99.90;;;;;;4973204;28;20470;-49
2023/08/21 06:22:36;;;;;;;15.50;11.87;;;24.70;99.90;;;;;;4973924;28;20944;-49
2023/08/21 06:25:03;;;;;;;14.93;10.37;;;24.70;99.90;;;;;;4971955;28;20471;-49
2023/08/21 06:27:30;;;;;;;10.97;9.53;;;24.60;99.90;;;;;;4973037;28;20430;-49
2023/08/21 06:29:56;;;;;;;11.60;9.80;;;24.80;99.90;;;;;;4972070;28;20446;-48
2023/08/21 06:32:23;;;;;;;10.80;9.10;;;24.80;99.90;;;;;;4971971;28;20446;-48
2023/08/21 06:34:52;;;;;;;11.00;9.60;;;24.80;99.90;;;;;;4973144;28;20456;-49
2023/08/21 06:37:18;;;;;;;10.70;9.73;;;24.80;99.90;;;;;;4972833;28;20426;-48
2023/08/21 06:39:46;;;;;;;11.23;9.80;;;24.80;99.90;;;;;;4987699;28;20552;-48
2023/08/21 06:42:13;;;;;;;10.60;8.57;;;24.70;99.90;;;;;;4973076;28;20437;-48
2023/08/21 06:44:46;;;;;;;12.07;9.77;;;24.70;99.90;;;;;;4988094;28;20538;-48
2023/08/21 06:47:13;;;;;;;11.83;8.87;;;24.70;99.90;;;;;;4972809;28;20456;-48
2023/08/21 06:49:39;;;;;;;11.67;8.80;;;24.70;99.90;;;;;;4971790;28;21131;-47
2023/08/21 06:52:07;;;;;;;11.40;10.03;;;24.70;99.90;;;;;;4973036;28;20430;-49
2023/08/21 06:54:34;;;;;;;15.70;10.00;;;24.70;99.90;;;;;;4972566;28;20458;-48
2023/08/21 06:57:01;;;;;;;10.30;8.73;;;24.80;99.90;;;;;;4972438;28;20505;-48
2023/08/21 06:59:27;;;;;;;9.90;8.90;;;24.90;99.90;;;;;;4972748;28;20898;-50
2023/08/21 07:01:54;;;;;;;15.67;10.37;;;25.10;99.90;;;;;;4972507;28;20500;-48
2023/08/21 07:04:20;;;;;;;11.97;10.30;;;25.30;99.90;;;;;;4972590;28;20434;-47
2023/08/21 07:06:47;;;;;;;11.60;10.40;;;25.50;99.90;;;;;;4983607;28;20812;-50
2023/08/21 07:09:15;;;;;;;9.43;8.43;;;25.60;99.90;;;;;;4992186;28;20505;-48
2023/08/21 07:11:41;;;;;;;8.97;8.00;;;25.60;99.90;;;;;;4992319;28;20448;-48
2023/08/21 07:14:08;;;;;;;14.83;8.57;;;25.60;99.90;;;;;;4991925;28;20433;-46
2023/08/21 07:16:35;;;;;;;10.23;8.40;;;25.70;99.90;;;;;;4991389;28;20438;-49
2023/08/21 07:19:02;;;;;;;8.30;7.50;;;25.70;99.90;;;;;;4992436;28;20442;-49
2023/08/21 07:21:29;;;;;;;9.20;7.63;;;25.80;99.90;;;;;;4991852;28;20484;-48
2023/08/21 07:23:55;;;;;;;10.77;7.13;;;25.80;99.90;;;;;;4992106;28;20440;-50
2023/08/21 07:26:23;;;;;;;8.23;7.43;;;25.90;99.90;;;;;;4991902;28;20457;-49
2023/08/21 07:28:50;;;;;;;8.30;6.70;;;25.90;99.90;;;;;;4991151;28;20440;-47
2023/08/21 07:31:16;;;;;;;11.43;7.30;;;25.80;99.90;;;;;;4991648;28;20530;-47
2023/08/21 07:33:43;;;;;;;6.83;6.10;;;25.70;99.90;;;;;;4991703;28;20479;-48
2023/08/21 07:36:14;;;;;;;8.23;6.80;;;25.80;99.90;;;;;;4992056;28;20468;-49
2023/08/21 07:38:41;;;;;;;12.63;8.10;;;25.80;99.90;;;;;;4990649;28;20449;-48
2023/08/21 07:41:09;;;;;;;7.33;6.60;;;25.80;99.90;;;;;;4991952;28;20483;-48
2023/08/21 07:43:38;;;;;;;6.60;5.80;;;25.70;99.90;;;;;;4990108;28;20449;-48
2023/08/21 07:46:05;;;;;;;11.10;6.60;;;25.60;99.90;;;;;;4991452;28;20469;-48
2023/08/21 07:48:32;;;;;;;9.40;5.90;;;25.60;99.90;;;;;;4991767;28;20540;-48
2023/08/21 07:50:59;;;;;;;9.00;6.23;;;25.60;99.90;;;;;;4991845;28;20638;-49
2023/08/21 07:53:26;;;;;;;7.87;6.10;;;25.60;99.90;;;;;;4991835;28;20808;-48
2023/08/21 07:55:53;;;;;;;9.07;6.23;;;25.60;99.90;;;;;;4991382;28;21011;-49
2023/08/21 07:58:20;;;;;;;9.40;5.87;;;25.60;99.90;;;;;;4991206;28;20436;-48
2023/08/21 08:00:48;;;;;;;7.90;5.50;;;25.60;99.90;;;;;;4990352;28;21008;-48
2023/08/21 08:03:15;;;;;;;6.73;4.40;;;25.70;99.90;;;;;;4991648;28;20936;-48
2023/08/21 08:05:42;;;;;;;6.90;4.33;;;25.70;99.30;;;;;;4991489;28;20457;-47
2023/08/21 08:08:08;;;;;;;5.07;4.30;;;25.80;98.70;;;;;;4991305;28;20425;-48
2023/08/21 08:10:38;;;;;;;8.43;4.20;;;25.60;98.10;;;;;;4991735;28;20445;-47
2023/08/21 08:13:04;;;;;;;9.10;4.40;;;25.80;97.60;;;;;;4991658;28;20445;-48
2023/08/21 08:15:31;;;;;;;18.43;3.83;;;25.70;97.30;;;;;;4991821;28;20461;-47
2023/08/21 08:17:59;;;;;;;6.90;4.17;;;25.80;97.30;;;;;;4991664;28;20466;-49
2023/08/21 08:20:25;;;;;;;6.30;4.20;;;25.90;97.20;;;;;;4994992;28;20490;-50
2023/08/21 08:22:52;;;;;;;10.30;9.30;;;26.00;97.20;;;;;;4995158;28;20430;-49
2023/08/21 08:25:19;;;;;;;8.40;4.70;;;26.00;97.20;;;;;;4994937;28;20454;-48
2023/08/21 08:27:45;;;;;;;8.07;5.00;;;26.00;97.40;;;;;;4994792;28;20812;-51
2023/08/21 08:30:12;;;;;;;8.03;4.70;;;26.20;97.30;;;;;;4995145;28;20817;-48
2023/08/21 08:32:40;;;;;;;6.50;4.90;;;26.20;97.00;;;;;;4995005;28;20438;-50
2023/08/21 08:35:09;;;;;;;6.83;4.83;;;26.30;97.10;;;;;;4994577;28;20457;-48
2023/08/21 08:37:35;;;;;;;6.07;4.37;;;26.20;97.00;;;;;;4994198;28;20545;-49
2023/08/21 08:40:03;;;;;;;6.40;4.20;;;26.20;96.70;;;;;;4994572;28;20446;-48
2023/08/21 08:42:30;;;;;;;8.13;3.60;;;26.10;96.50;;;;;;4995029;28;20833;-49
2023/08/21 08:45:02;;;;;;;4.77;3.17;;;26.00;96.10;;;;;;4994430;28;20462;-48
2023/08/21 08:47:32;;;;;;;5.07;3.10;;;26.00;95.30;;;;;;4993926;28;20444;-48
2023/08/21 08:49:59;;;;;;;4.53;2.40;;;25.80;94.40;;;;;;4994438;28;20448;-47
2023/08/21 08:52:28;;;;;;;4.80;2.20;;;25.90;92.70;;;;;;4994559;28;20441;-49
2023/08/21 08:54:56;;;;;;;5.50;2.53;;;26.00;92.40;;;;;;4994547;28;20457;-47
2023/08/21 08:57:23;;;;;;;4.27;2.70;;;26.10;92.40;;;;;;4992860;28;20792;-49
2023/08/21 08:59:49;;;;;;;6.00;2.90;;;26.10;91.40;;;;;;4994199;28;20433;-48
2023/08/21 09:02:17;;;;;;;3.73;1.80;;;26.20;90.10;;;;;;4994412;28;20499;-48
2023/08/21 09:04:43;;;;;;;1.97;1.07;;;26.30;87.20;;;;;;4993999;28;20481;-49
2023/08/21 09:07:11;;;;;;;3.30;1.30;;;26.30;81.00;;;;;;4993809;28;20795;-49
2023/08/21 09:09:46;;;;;;;3.50;1.50;;;26.40;79.50;;;;;;4994227;28;20959;-49
2023/08/21 09:12:14;;;;;;;2.73;1.10;;;26.50;75.20;;;;;;4994311;28;20501;-48
2023/08/21 09:14:41;;;;;;;5.20;1.63;;;26.60;76.20;;;;;;4993972;28;20460;-49
2023/08/21 09:17:08;;;;;;;5.20;1.70;;;26.70;75.50;;;;;;4993507;28;20433;-49
2023/08/21 09:19:35;;;;;;;4.73;1.60;;;27.00;76.20;;;;;;4993821;28;21022;-48
2023/08/21 09:22:09;;;;;;;3.60;1.50;;;27.20;74.80;;;;;;4993870;28;20485;-47
2023/08/21 09:24:36;;;;;;;4.00;1.37;;;27.30;73.40;;;;;;4993785;28;20445;-48
2023/08/21 09:27:05;;;;;;;6.77;1.83;;;27.30;73.40;;;;;;4993417;28;20433;-49
2023/08/21 09:29:39;;;;;;;10.80;8.90;;;27.30;73.90;;;;;;4993382;28;20524;-49
2023/08/21 09:32:06;;;;;;;6.83;1.57;;;27.20;74.80;;;;;;4993553;28;20464;-48
2023/08/21 09:34:36;;;;;;;4.27;1.40;;;27.20;76.20;;;;;;4993965;28;20453;-48
2023/08/21 09:37:07;;;;;;;2.80;1.50;;;27.30;76.60;;;;;;4993858;28;20850;-49
2023/08/21 09:39:34;;;;;;;6.27;2.07;;;27.40;76.00;;;;;;4993828;28;20433;-46
2023/08/21 09:42:01;;;;;;;3.93;1.50;;;27.30;76.00;;;;;;4994099;28;20477;-49
2023/08/21 09:44:30;;;;;;;8.40;2.13;;;27.40;76.50;;;;;;4993965;28;20457;-47
2023/08/21 09:46:56;;;;;;;5.37;1.83;;;27.40;77.30;;;;;;4993491;28;20539;-48
2023/08/21 09:49:24;;;;;;;8.20;2.07;;;27.40;77.30;;;;;;4994388;28;20457;-47
2023/08/21 09:51:51;;;;;;;3.77;1.80;;;27.50;77.70;;;;;;4994255;28;20465;-47
2023/08/21 09:54:17;;;;;;;4.40;1.93;;;27.50;77.60;;;;;;4994293;28;20444;-46
2023/08/21 09:56:47;;;;;;;4.80;2.00;;;27.50;76.30;;;;;;4993086;28;20440;-47
2023/08/21 09:59:15;;;;;;;3.57;1.57;;;27.50;76.30;;;;;;4993621;28;20448;-47
2023/08/21 10:01:43;;;;;;;3.53;1.70;;;27.60;75.90;;;;;;4993364;28;20488;-47
2023/08/21 10:04:11;;;;;;;3.30;2.17;;;27.60;75.60;;;;;;4993220;28;20429;-47
2023/08/21 10:06:39;;;;;;;4.70;3.50;;;27.60;75.40;;;;;;4992063;28;20516;-47
2023/08/21 10:09:07;;;;;;;3.83;1.63;;;27.50;75.40;;;;;;4994312;28;20441;-46
2023/08/21 10:11:34;;;;;;;3.43;1.53;;;27.50;75.80;;;;;;4992857;28;20429;-46
2023/08/21 10:14:00;;;;;;;5.93;1.67;;;27.40;75.90;;;;;;4993238;28;20482;-46
2023/08/21 10:16:27;;;;;;;3.03;1.77;;;27.30;75.70;;;;;;4992977;28;20483;-47
2023/08/21 10:18:55;;;;;;;4.23;1.53;;;27.20;76.10;;;;;;4993245;28;20437;-47
2023/08/21 10:21:25;;;;;;;4.03;1.70;;;27.30;76.00;;;;;;4992975;28;20485;-47
2023/08/21 10:23:55;;;;;;;4.37;1.90;;;27.40;75.40;;;;;;4992989;28;20931;-47
2023/08/21 10:26:23;;;;;;;4.50;1.97;;;27.50;74.90;;;;;;4993131;28;20551;-47
2023/08/21 10:28:51;;;;;;;2.77;1.70;;;27.60;74.90;;;;;;4992473;28;20548;-46
2023/08/21 10:31:31;;;;;;;3.50;1.60;;;27.70;74.30;;;;;;4992957;28;20429;-46
2023/08/21 10:33:59;;;;;;;5.40;1.70;;;27.60;73.30;;;;;;4992772;28;20448;-47
2023/08/21 10:36:53;;;;;;;5.47;2.20;;;27.60;74.00;;;;;;4992535;28;20503;-47
2023/08/21 10:39:24;;;;;;;5.00;1.80;;;27.60;73.90;;;;;;4980171;28;20449;-46
2023/08/21 10:41:55;;;;;;;4.10;1.80;;;27.60;74.90;;;;;;4992313;28;20473;-46
2023/08/21 10:44:35;;;;;;;4.30;1.73;;;27.70;74.80;;;;;;4992496;28;20461;-48
2023/08/21 10:47:16;;;;;;;4.70;2.20;;;27.70;75.00;;;;;;4991970;28;20460;-47
2023/08/21 10:49:45;;;;;;;4.57;1.87;;;27.60;75.40;;;;;;4992668;28;20471;-46
2023/08/21 10:52:12;;;;;;;6.07;2.40;;;27.30;75.60;;;;;;4991357;28;20452;-47
2023/08/21 10:54:46;;;;;;;4.70;1.97;;;27.60;75.80;;;;;;4992342;28;20509;-47
2023/08/21 10:57:13;;;;;;;3.60;1.60;;;27.60;74.30;;;;;;4991625;28;20441;-47
2023/08/21 10:59:39;;;;;;;5.67;2.60;;;27.60;73.60;;;;;;4992059;28;20439;-47
2023/08/21 11:02:06;;;;;;;5.67;2.00;;;27.70;73.50;;;;;;4992240;28;20517;-48
2023/08/21 11:04:41;;;;;;;4.20;2.00;;;27.80;73.50;;;;;;4992331;28;20810;-48
2023/08/21 11:07:09;;;;;;;5.50;2.03;;;28.00;73.40;;;;;;4992158;28;20452;-47
2023/08/21 11:09:36;;;;;;;3.10;1.60;;;28.20;73.50;;;;;;4992811;28;20484;-48
2023/08/21 11:12:07;;;;;;;4.33;2.47;;;28.30;72.20;;;;;;4992829;28;20954;-45
2023/08/21 11:14:34;;;;;;;7.40;2.10;;;28.30;72.60;;;;;;4992971;28;20509;-46
2023/08/21 11:17:01;;;;;;;6.00;2.10;;;28.20;71.80;;;;;;4992144;28;20456;-47
2023/08/21 11:19:30;;;;;;;3.87;1.77;;;28.20;72.10;;;;;;4992753;28;20436;-47
2023/08/21 11:21:59;;;;;;;5.60;2.27;;;28.00;72.00;;;;;;4991852;28;20851;-47
2023/08/21 11:24:32;;;;;;;2.73;1.23;;;28.30;70.10;;;;;;4992184;28;20437;-47
2023/08/21 11:26:58;;;;;;;4.67;1.97;;;28.40;69.60;;;;;;4991971;28;20507;-47
2023/08/21 11:29:26;;;;;;;4.27;2.10;;;28.40;70.00;;;;;;4992065;28;20437;-47
2023/08/21 11:31:53;;;;;;;6.67;2.43;;;28.50;70.40;;;;;;4992370;28;20504;-46
2023/08/21 11:34:20;;;;;;;3.90;1.80;;;28.50;70.60;;;;;;4991703;28;20460;-46
2023/08/21 11:36:47;;;;;;;6.17;1.80;;;28.60;70.90;;;;;;4991836;28;20500;-47
2023/08/21 11:39:14;;;;;;;3.97;1.60;;;28.70;70.80;;;;;;4992748;28;20441;-48
2023/08/21 11:41:58;;;;;;;4.37;1.80;;;28.80;70.20;;;;;;4992026;28;20485;-48
2023/08/21 11:44:25;;;;;;;3.70;1.90;;;28.90;69.20;;;;;;4992527;28;20448;-47
2023/08/21 11:46:53;;;;;;;2.80;1.60;;;29.00;69.70;;;;;;4992922;28;20813;-46
2023/08/21 11:49:22;;;;;;;5.37;1.87;;;29.00;69.50;;;;;;4993021;28;20434;-47
2023/08/21 11:51:49;;;;;;;5.80;2.10;;;29.10;69.50;;;;;;4992813;28;20760;-47
2023/08/21 11:54:18;;;;;;;14.00;4.70;;;29.20;68.70;;;;;;4994800;28;20528;-48
2023/08/21 11:56:44;;;;;;;6.73;2.80;;;29.30;68.60;;;;;;4995816;28;20432;-47
2023/08/21 11:59:22;;;;;;;7.60;1.80;;;29.30;68.70;;;;;;4995757;28;20429;-46
2023/08/21 12:01:52;;;;;;;2.33;1.37;;;29.30;68.30;;;;;;4995774;28;20469;-46
2023/08/21 12:04:18;;;;;;;9.90;2.00;;;29.30;68.30;;;;;;4995537;28;20928;-47
2023/08/21 12:06:45;;;;;;;9.50;2.20;;;29.40;67.30;;;;;;4995580;28;20456;-47
2023/08/21 12:09:11;;;;;;;5.23;2.40;;;29.40;67.00;;;;;;4996049;28;20433;-46
2023/08/21 12:11:38;;;;;;;6.83;1.47;;;29.40;67.10;;;;;;4994135;28;20858;-47
2023/08/21 12:14:05;;;;;;;4.60;1.60;;;29.40;66.40;;;;;;4995450;28;20198;-47
2023/08/21 12:16:32;;;;;;;7.47;3.10;;;29.40;66.50;;;;;;4995597;28;20457;-48
2023/08/21 12:18:59;;;;;;;5.13;1.63;;;29.50;65.90;;;;;;4995652;28;20448;-46
2023/08/21 12:21:26;;;;;;;7.83;2.63;;;29.60;65.60;;;;;;4995656;28;20447;-47
2023/08/21 12:23:53;;;;;;;4.20;1.90;;;29.50;66.00;;;;;;4995367;28;20430;-48
2023/08/21 12:26:21;;;;;;;5.67;2.10;;;29.50;66.70;;;;;;4995450;28;20833;-46
2023/08/21 12:28:48;;;;;;;3.70;2.00;;;29.50;67.20;;;;;;4995085;28;20429;-47
2023/08/21 12:31:14;;;;;;;6.80;1.53;;;29.40;67.10;;;;;;4995718;28;20433;-47
2023/08/21 12:33:42;;;;;;;6.33;1.90;;;29.40;67.20;;;;;;4995214;28;20445;-47
2023/08/21 12:36:09;;;;;;;4.83;1.97;;;29.30;67.80;;;;;;4995475;28;20548;-47
2023/08/21 12:38:36;;;;;;;3.20;1.77;;;29.20;68.00;;;;;;4995505;28;20469;-47
2023/08/21 12:41:03;;;;;;;6.70;2.00;;;29.00;67.90;;;;;;4996675;28;20947;-46
2023/08/21 12:43:31;;;;;;;5.13;2.90;;;28.80;68.30;;;;;;4995911;28;20476;-46